createdAt,value
2023-04-16T00:01:35.829Z,38.03
2023-04-16T00:04:08.892Z,36.78
2023-04-16T00:06:47.204Z,40.05
2023-04-16T00:09:28.466Z,39.50
2023-04-16T00:12:07.265Z,36.88
2023-04-16T00:14:46.136Z,37.53
2023-04-16T00:17:18.791Z,37.08
2023-04-16T00:19:50.548Z,35.95
2023-04-16T00:22:27.041Z,36.45
2023-04-16T00:25:04.357Z,37.47
2023-04-16T00:27:49.272Z,39.17
2023-04-16T00:30:23.285Z,39.53
2023-04-16T00:33:00.925Z,39.40
2023-04-16T00:35:35.490Z,40.33
2023-04-16T00:38:11.413Z,40.55
2023-04-16T00:40:48.496Z,40.58
2023-04-16T00:43:33.767Z,42.47
2023-04-16T00:46:11.971Z,40.03
2023-04-16T00:48:49.462Z,38.75
2023-04-16T00:51:22.843Z,40.15
2023-04-16T00:53:55.773Z,41.95
2023-04-16T00:56:34.447Z,41.35
2023-04-16T00:59:09.231Z,40.20
2023-04-16T01:01:42.796Z,38.38
2023-04-16T01:04:15.139Z,38.55
2023-04-16T01:06:47.848Z,39.25
2023-04-16T01:09:20.414Z,40.40
2023-04-16T01:11:52.783Z,39.10
2023-04-16T01:14:40.840Z,40.72
2023-04-16T01:17:16.086Z,39.85
2023-04-16T01:19:48.121Z,40.50
2023-04-16T01:22:27.892Z,40.28
2023-04-16T01:25:03.331Z,40.15
2023-04-16T01:27:38.065Z,40.60
2023-04-16T01:30:11.707Z,40.42
2023-04-16T01:32:44.110Z,40.30
2023-04-16T01:35:18.636Z,40.22
2023-04-16T01:37:54.446Z,42.35
2023-04-16T01:40:26.579Z,40.95
2023-04-16T01:42:59.345Z,39.35
2023-04-16T01:45:31.770Z,41.15
2023-04-16T01:48:04.759Z,41.80
2023-04-16T01:50:38.299Z,39.83
2023-04-16T01:53:13.713Z,42.22
2023-04-16T01:55:46.202Z,42.03
2023-04-16T01:58:19.099Z,43.08
2023-04-16T02:00:51.309Z,40.60
2023-04-16T02:03:25.397Z,40.88
2023-04-16T02:06:00.186Z,40.50
2023-04-16T02:08:36.065Z,37.88
2023-04-16T02:11:11.654Z,38.70
2023-04-16T02:16:32.052Z,39.80
2023-04-16T02:19:05.052Z,40.67
2023-04-16T02:21:37.366Z,38.88
2023-04-16T02:24:12.773Z,38.00
2023-04-16T14:04:37.471Z,14.88
2023-04-16T14:07:10.675Z,14.30
2023-04-16T14:09:42.169Z,14.40
2023-04-16T14:12:14.372Z,14.95
2023-04-16T14:14:47.461Z,14.60
2023-04-16T14:17:20.817Z,14.52
2023-04-16T14:19:56.007Z,15.38
2023-04-16T14:22:28.178Z,14.93
2023-04-16T14:24:59.832Z,14.27
2023-04-16T14:27:33.067Z,14.70
2023-04-16T14:30:04.712Z,15.23
2023-04-16T14:32:44.952Z,15.95
2023-04-16T14:35:20.462Z,14.50
2023-04-16T14:37:55.465Z,12.90
2023-04-16T14:40:26.654Z,12.60
2023-04-16T14:42:58.266Z,11.88
2023-04-16T14:45:31.123Z,10.63
2023-04-16T14:48:02.547Z,10.55
2023-04-16T14:50:38.359Z,10.63
2023-04-16T14:53:09.892Z,9.50
2023-04-16T14:55:42.211Z,9.05
2023-04-16T14:58:14.076Z,9.20
2023-04-16T15:00:45.961Z,9.20
2023-04-16T15:03:17.972Z,8.80
2023-04-16T15:05:55.915Z,9.75
2023-04-16T15:08:28.292Z,9.85
2023-04-16T15:11:00.000Z,9.10
2023-04-16T15:13:34.475Z,9.32
2023-04-16T15:16:07.735Z,9.98
2023-04-16T15:18:39.677Z,10.95
2023-04-16T15:21:13.877Z,9.88
2023-04-16T15:23:46.141Z,10.43
2023-04-16T15:26:17.707Z,11.30
2023-04-16T15:28:49.692Z,11.57
2023-04-16T15:31:21.320Z,11.43
2023-04-16T15:33:53.423Z,11.23
2023-04-16T15:36:27.641Z,11.35
2023-04-16T15:38:59.512Z,11.60
2023-04-16T15:41:37.015Z,10.82
2023-04-16T15:44:09.330Z,11.27
2023-04-16T15:46:40.687Z,10.73
2023-04-16T15:49:12.734Z,12.30
2023-04-16T15:51:47.325Z,10.95
2023-04-16T15:54:19.654Z,11.07
2023-04-16T15:56:51.268Z,11.20
2023-04-16T15:59:23.045Z,11.90
2023-04-16T16:01:54.937Z,11.25
2023-04-16T16:04:27.113Z,11.63
2023-04-16T16:07:03.059Z,12.90
2023-04-16T16:09:35.054Z,11.52
2023-04-16T16:12:06.717Z,12.45
2023-04-16T16:14:38.829Z,13.13
2023-04-16T16:17:13.011Z,12.18
2023-04-16T16:19:46.405Z,12.82
2023-04-16T16:22:24.164Z,12.00
2023-04-16T16:24:58.335Z,12.82
2023-04-16T16:27:30.080Z,13.77
2023-04-16T16:30:05.050Z,14.40
2023-04-16T16:32:37.126Z,14.13
2023-04-16T16:35:11.225Z,14.23
2023-04-16T16:37:46.076Z,13.75
2023-04-16T16:40:18.219Z,13.52
2023-04-16T16:42:50.118Z,14.45
2023-04-16T16:45:22.733Z,13.40
2023-04-16T16:47:55.041Z,12.70
2023-04-16T16:50:27.251Z,11.75
2023-04-16T16:53:01.536Z,11.02
2023-04-16T16:55:35.546Z,12.40
2023-04-16T16:58:07.562Z,11.68
2023-04-16T17:00:39.840Z,11.93
2023-04-16T17:03:12.802Z,12.27
2023-04-16T17:05:45.384Z,12.88
2023-04-16T17:08:19.670Z,13.05
2023-04-16T17:10:51.992Z,10.98
2023-04-16T17:13:25.620Z,12.88
2023-04-16T17:15:57.575Z,14.18
2023-04-16T17:18:29.680Z,13.10
2023-04-16T17:21:02.131Z,13.73
2023-04-16T17:23:36.732Z,14.52
2023-04-16T17:26:09.199Z,14.23
2023-04-16T17:28:41.025Z,14.43
2023-04-16T17:31:13.428Z,14.25
2023-04-16T17:33:45.532Z,14.55
2023-04-16T17:36:19.951Z,14.48
2023-04-16T17:38:54.329Z,15.10
2023-04-16T17:41:26.890Z,14.35
2023-04-16T17:43:58.935Z,14.25
2023-04-16T17:46:31.129Z,14.43
2023-04-16T17:49:02.821Z,13.93
2023-04-16T17:51:34.685Z,14.98
2023-04-16T17:54:09.232Z,14.23
2023-04-16T17:56:41.316Z,12.88
2023-04-16T17:59:12.828Z,13.40
2023-04-16T18:01:45.287Z,12.65
2023-04-16T18:04:18.822Z,13.82
2023-04-16T18:06:51.245Z,14.60
2023-04-16T18:09:25.184Z,14.88
2023-04-16T18:11:58.061Z,15.35
2023-04-16T18:14:29.488Z,14.80
2023-04-16T18:17:03.695Z,14.30
2023-04-16T18:19:37.052Z,13.48
2023-04-16T18:22:09.197Z,13.88
2023-04-16T18:24:43.292Z,14.02
2023-04-16T18:27:15.137Z,13.88
2023-04-16T18:29:46.728Z,13.95
2023-04-16T18:32:18.542Z,15.55
2023-04-16T18:34:50.404Z,14.15
2023-04-16T18:37:22.424Z,14.63
2023-04-16T18:39:57.914Z,14.23
2023-04-16T18:42:33.144Z,14.20
2023-04-16T18:45:06.259Z,15.10
2023-04-16T18:47:37.899Z,14.73
2023-04-16T18:50:12.190Z,15.32
2023-04-16T18:52:44.842Z,15.48
2023-04-16T18:55:19.626Z,16.45
2023-04-16T18:57:52.170Z,16.13
2023-04-16T19:00:24.566Z,16.08
2023-04-16T19:02:56.841Z,17.98
2023-04-16T19:05:29.587Z,15.23
2023-04-16T19:08:02.418Z,15.80
2023-04-16T19:10:37.308Z,16.77
2023-04-16T19:13:09.849Z,16.42
2023-04-16T19:15:41.884Z,16.33
2023-04-16T19:18:14.316Z,16.58
2023-04-16T19:20:46.268Z,15.60
2023-04-16T19:23:19.558Z,15.45
2023-04-16T19:25:56.650Z,15.10
2023-04-16T19:28:29.507Z,17.23
2023-04-16T19:31:01.421Z,15.82
2023-04-16T19:33:33.772Z,17.13
2023-04-16T19:36:05.873Z,15.85
2023-04-16T19:38:38.258Z,16.88
2023-04-16T19:41:12.877Z,16.95
2023-04-16T19:43:46.817Z,16.05
2023-04-16T19:46:18.988Z,16.27
2023-04-16T19:48:53.813Z,16.63
2023-04-16T19:51:28.193Z,16.38
2023-04-16T19:54:02.199Z,15.98
2023-04-16T19:56:38.830Z,16.70
2023-04-16T19:59:11.770Z,16.23
2023-04-16T20:01:45.116Z,16.90
2023-04-16T20:04:19.013Z,17.20
2023-04-16T20:06:54.052Z,15.90
2023-04-16T20:09:29.698Z,16.98
2023-04-16T20:12:04.910Z,16.63
2023-04-16T20:14:37.590Z,15.02
2023-04-16T20:17:10.442Z,15.55
2023-04-16T20:19:52.107Z,14.63
2023-04-16T20:22:24.555Z,15.10
2023-04-16T20:24:58.450Z,14.73
2023-04-16T20:27:33.326Z,13.90
2023-04-16T20:30:06.823Z,14.55
2023-04-16T20:32:39.366Z,13.45
2023-04-16T20:35:14.606Z,13.93
2023-04-16T20:37:46.988Z,13.80
2023-04-16T20:40:19.788Z,13.52
2023-04-16T20:42:57.767Z,13.25
2023-04-16T20:45:33.128Z,14.15
2023-04-16T20:48:05.701Z,13.98
2023-04-16T20:50:38.569Z,13.75
2023-04-16T20:53:16.208Z,13.55
2023-04-16T20:55:49.888Z,14.35
2023-04-16T20:58:25.631Z,14.35
2023-04-16T21:00:59.612Z,14.75
2023-04-16T21:03:32.168Z,14.45
2023-04-16T21:06:06.790Z,14.52
2023-04-16T21:08:39.612Z,14.65
2023-04-16T21:11:12.855Z,14.88
2023-04-16T21:13:48.032Z,15.88
2023-04-16T21:16:20.709Z,15.18
2023-04-16T21:18:52.691Z,14.60
2023-04-16T21:21:25.270Z,15.00
2023-04-16T21:23:58.057Z,15.05
2023-04-16T21:26:32.020Z,15.57
2023-04-16T21:29:07.460Z,15.40
2023-04-16T21:31:40.046Z,15.73
2023-04-16T21:34:12.031Z,15.88
2023-04-16T21:36:44.496Z,16.92
2023-04-16T21:39:17.800Z,16.08
2023-04-16T21:41:51.733Z,16.45
2023-04-16T21:44:26.371Z,16.85
2023-04-16T21:46:58.879Z,16.88
2023-04-16T21:49:30.855Z,16.23
2023-04-16T21:52:06.696Z,16.42
2023-04-16T21:54:38.872Z,16.38
2023-04-16T21:57:15.154Z,16.75
2023-04-16T21:59:49.671Z,17.42
2023-04-16T22:02:22.346Z,17.02
2023-04-16T22:04:54.509Z,16.52
2023-04-16T22:07:29.492Z,17.27
2023-04-16T22:10:01.379Z,17.33
2023-04-16T22:12:34.073Z,16.90
2023-04-16T22:15:10.953Z,17.33
2023-04-16T22:17:44.148Z,18.30
2023-04-16T22:20:16.791Z,17.27
2023-04-16T22:22:49.471Z,17.48
2023-04-16T22:25:21.332Z,16.90
2023-04-16T22:27:53.564Z,17.17
2023-04-16T22:30:28.377Z,16.60
2023-04-16T22:33:01.368Z,16.60
2023-04-16T22:35:33.396Z,17.75
2023-04-16T22:38:05.953Z,17.27
2023-04-16T22:40:37.897Z,17.30
2023-04-16T22:43:10.414Z,17.58
2023-04-16T22:45:46.574Z,18.63
2023-04-16T22:48:19.130Z,18.45
2023-04-16T22:50:54.750Z,17.67
2023-04-16T22:53:27.110Z,17.02
2023-04-16T22:55:58.999Z,16.67
2023-04-16T22:58:34.147Z,18.38
2023-04-16T23:01:09.238Z,18.15
2023-04-16T23:03:41.686Z,16.85
2023-04-16T23:06:13.511Z,17.55
2023-04-16T23:08:47.495Z,17.02
2023-04-16T23:11:19.418Z,17.77
2023-04-16T23:13:52.238Z,17.30
2023-04-16T23:16:27.618Z,17.40
2023-04-16T23:19:00.188Z,18.23
2023-04-16T23:21:32.893Z,16.85
2023-04-16T23:24:05.917Z,16.55
2023-04-16T23:26:38.116Z,17.00
2023-04-16T23:29:11.024Z,16.90
2023-04-16T23:31:46.265Z,17.35
2023-04-16T23:34:19.151Z,16.85
2023-04-16T23:36:51.380Z,17.15
2023-04-16T23:39:24.131Z,16.25
2023-04-16T23:41:57.546Z,17.08
2023-04-16T23:44:30.353Z,16.95
2023-04-16T23:47:05.849Z,16.50
2023-04-16T23:49:39.451Z,18.55
2023-04-16T23:52:11.861Z,17.63
2023-04-16T23:54:44.592Z,18.95
2023-04-16T23:57:16.919Z,17.27
2023-04-16T23:59:49.708Z,17.42
